| time (UTC) | temp F | wind direction | speed MPH | gust MPH | rain 1hr in | rain 24hr in | rain mn in | humidity % | barometer mb |
| 20260503212030 | 60 | 16 | 4.0 | 14.0 | 0.00 | 0.00 | 0.00 | 33 | 1016.1 |
| 20260503211526 | 59 | 13 | 9.0 | 15.0 | 0.00 | 0.00 | 0.00 | 29 | 1016.1 |
| 20260503211022 | 60 | 44 | 6.0 | 9.0 | 0.00 | 0.00 | 0.00 | 30 | 1016.0 |
| 20260503210519 | 60 | 337 | 9.0 | 11.0 | 0.00 | 0.00 | 0.00 | 31 | 1016.5 |
| 20260503210015 | 60 | 2 | 10.0 | 13.0 | 0.00 | 0.00 | 0.00 | 28 | 1016.3 |
| 20260503205512 | 60 | 19 | 8.0 | 16.0 | 0.00 | 0.00 | 0.00 | 30 | 1016.4 |
| 20260503205008 | 60 | 351 | 6.0 | 13.0 | 0.00 | 0.00 | 0.00 | 29 | 1016.2 |
| 20260503204505 | 60 | 53 | 11.0 | 17.0 | 0.00 | 0.00 | 0.00 | 29 | 1016.1 |
| 20260503204001 | 60 | 22 | 8.0 | 11.0 | 0.00 | 0.00 | 0.00 | 31 | 1016.3 |
| 20260503203459 | 58 | 343 | 10.0 | 15.0 | 0.00 | 0.00 | 0.00 | 33 | 1016.6 |
| 20260503202955 | 59 | 56 | 8.0 | 15.0 | 0.00 | 0.00 | 0.00 | 30 | 1016.4 |
| 20260503202454 | 60 | 49 | 14.0 | 18.0 | 0.00 | 0.00 | 0.00 | 30 | 1016.2 |
| 20260503201952 | 60 | 5 | 5.0 | 11.0 | 0.00 | 0.00 | 0.00 | 34 | 1016.5 |
| 20260503201449 | 60 | 20 | 9.0 | 15.0 | 0.00 | 0.00 | 0.00 | 28 | 1016.3 |
| 20260503200947 | 59 | 22 | 6.0 | 15.0 | 0.00 | 0.00 | 0.00 | 32 | 1016.6 |
| 20260503200443 | 60 | 17 | 6.0 | 13.0 | 0.00 | 0.00 | 0.00 | 32 | 1016.8 |
| 20260503195940 | 60 | 332 | 13.0 | 16.0 | 0.00 | 0.00 | 0.00 | 32 | 1016.7 |
| 20260503195437 | 60 | 40 | 5.0 | 8.0 | 0.00 | 0.00 | 0.00 | 35 | 1016.7 |
| 20260503194933 | 58 | 326 | 7.0 | 14.0 | 0.00 | 0.00 | 0.00 | 33 | 1016.8 |
| 20260503194430 | 59 | 347 | 6.0 | 10.0 | 0.00 | 0.00 | 0.00 | 29 | 1016.8 |
| 20260503193926 | 59 | 46 | 3.0 | 7.0 | 0.00 | 0.00 | 0.00 | 30 | 1017.0 |
| 20260503193421 | 56 | 13 | 5.0 | 16.0 | 0.00 | 0.00 | 0.00 | 34 | 1017.0 |
| 20260503192917 | 56 | 64 | 5.0 | 11.0 | 0.00 | 0.00 | 0.00 | 35 | 1017.2 |
| 20260503192414 | 58 | 39 | 8.0 | 17.0 | 0.00 | 0.00 | 0.00 | 36 | 1017.0 |
| 20260503191909 | 59 | 211 | 2.0 | 6.0 | 0.00 | 0.00 | 0.00 | 36 | 1017.0 |
| 20260503191408 | 57 | 357 | 4.0 | 10.0 | 0.00 | 0.00 | 0.00 | 33 | 1017.0 |
| 20260503190903 | 56 | 47 | 3.0 | 7.0 | 0.00 | 0.00 | 0.00 | 32 | 1017.2 |
| 20260503190401 | 56 | 32 | 5.0 | 13.0 | 0.00 | 0.00 | 0.00 | 32 | 1017.3 |
| 20260503185857 | 57 | 356 | 4.0 | 11.0 | 0.00 | 0.00 | 0.00 | 32 | 1017.3 |
| 20260503185354 | 56 | 37 | 11.0 | 14.0 | 0.00 | 0.00 | 0.00 | 33 | 1017.3 |
| 20260503184854 | 57 | 58 | 8.0 | 11.0 | 0.00 | 0.00 | 0.00 | 35 | 1017.2 |
| 20260503184350 | 58 | 19 | 10.0 | 13.0 | 0.00 | 0.00 | 0.00 | 35 | 1017.7 |
| 20260503183846 | 57 | 352 | 9.0 | 11.0 | 0.00 | 0.00 | 0.00 | 33 | 1017.5 |
| 20260503183343 | 56 | 66 | 15.0 | 19.0 | 0.00 | 0.00 | 0.00 | 33 | 1017.5 |
| 20260503182840 | 56 | 48 | 6.0 | 10.0 | 0.00 | 0.00 | 0.00 | 35 | 1017.5 |
| 20260503182340 | 57 | 45 | 7.0 | 17.0 | 0.00 | 0.00 | 0.00 | 37 | 1017.6 |
| 20260503181836 | 56 | 332 | 5.0 | 13.0 | 0.00 | 0.00 | 0.00 | 37 | 1017.6 |
| 20260503181333 | 57 | 56 | 11.0 | 17.0 | 0.00 | 0.00 | 0.00 | 34 | 1017.7 |
| 20260503180829 | 56 | 12 | 6.0 | 23.0 | 0.00 | 0.00 | 0.00 | 34 | 1017.7 |
| 20260503180328 | 57 | 31 | 8.0 | 11.0 | 0.00 | 0.00 | 0.00 | 34 | 1017.8 |
| 20260503175824 | 55 | 56 | 10.0 | 11.0 | 0.00 | 0.00 | 0.00 | 35 | 1017.6 |
| 20260503175322 | 56 | 112 | 6.0 | 8.0 | 0.00 | 0.00 | 0.00 | 34 | 1017.8 |
| 20260503174817 | 56 | 26 | 8.0 | 11.0 | 0.00 | 0.00 | 0.00 | 32 | 1017.9 |
| 20260503174316 | 57 | 3 | 10.0 | 14.0 | 0.00 | 0.00 | 0.00 | 33 | 1018.0 |
| 20260503173811 | 55 | 60 | 4.0 | 11.0 | 0.00 | 0.00 | 0.00 | 33 | 1017.9 |
| 20260503173307 | 56 | 54 | 12.0 | 14.0 | 0.00 | 0.00 | 0.00 | 35 | 1018.0 |
| 20260503172804 | 55 | 357 | 13.0 | 16.0 | 0.00 | 0.00 | 0.00 | 33 | 1018.0 |
| 20260503172301 | 55 | 54 | 12.0 | 16.0 | 0.00 | 0.00 | 0.00 | 36 | 1018.0 |
| 20260503171757 | 54 | 57 | 11.0 | 14.0 | 0.00 | 0.00 | 0.00 | 37 | 1018.1 |
| 20260503171254 | 55 | 60 | 9.0 | 14.0 | 0.00 | 0.00 | 0.00 | 34 | 1018.1 |
| 20260503170752 | 55 | 28 | 6.0 | 8.0 | 0.00 | 0.00 | 0.00 | 35 | 1018.2 |
| 20260503170248 | 55 | 340 | 11.0 | 15.0 | 0.00 | 0.00 | 0.00 | 37 | 1018.3 |
| 20260503160210 | 51 | 54 | 11.0 | 11.0 | 0.00 | 0.00 | 0.00 | 42 | 1019.0 |
| 20260503150641 | 50 | 28 | 11.0 | 13.0 | 0.00 | 0.00 | 0.00 | 44 | 1019.6 |
| 20260503150136 | 49 | 62 | 9.0 | 11.0 | 0.00 | 0.00 | 0.00 | 46 | 1019.5 |
| 20260503131030 | 43 | 355 | 2.0 | 7.0 | 0.00 | 0.00 | 0.00 | 61 | 1019.8 |
| 20260503130527 | 42 | 320 | 2.0 | 6.0 | 0.00 | 0.00 | 0.00 | 61 | 1019.8 |
| 20260503110418 | 36 | 3 | 2.0 | 2.0 | 0.00 | 0.00 | 0.00 | 71 | 1019.3 |
| 20260503090320 | 36 | 37 | 1.0 | 2.0 | 0.00 | 0.00 | 0.00 | 71 | 1018.2 |
| 20260503081248 | 37 | 30 | 1.0 | 4.0 | 0.00 | 0.00 | 0.00 | 70 | 1018.1 |
| 20260503080743 | 37 | 2 | 4.0 | 6.0 | 0.00 | 0.00 | 0.00 | 69 | 1017.9 |
| 20260503080242 | 37 | 347 | 3.0 | 3.0 | 0.00 | 0.00 | 0.00 | 71 | 1017.9 |
| 20260503072718 | 38 | 9 | 1.0 | 2.0 | 0.00 | 0.00 | 0.00 | 71 | 1017.6 |
| 20260503072214 | 38 | 19 | 1.0 | 2.0 | 0.00 | 0.00 | 0.00 | 70 | 1017.6 |
| 20260503071711 | 39 | 28 | 2.0 | 3.0 | 0.00 | 0.00 | 0.00 | 69 | 1017.6 |
| 20260503071208 | 39 | 17 | 2.0 | 4.0 | 0.00 | 0.00 | 0.00 | 69 | 1017.5 |
| 20260503070704 | 39 | 46 | 1.0 | 6.0 | 0.00 | 0.00 | 0.00 | 68 | 1017.5 |
| 20260503070203 | 39 | 22 | 2.0 | 4.0 | 0.00 | 0.00 | 0.00 | 68 | 1017.4 |
| 20260503060127 | 40 | 28 | 4.0 | 4.0 | 0.00 | 0.00 | 0.00 | 69 | 1017.2 |
| 20260503055119 | 41 | 46 | 3.0 | 4.0 | 0.00 | 0.00 | 0.00 | 69 | 1017.5 |
| 20260503054614 | 40 | 64 | 3.0 | 6.0 | 0.00 | 0.00 | 0.00 | 69 | 1017.3 |
| 20260503054111 | 41 | 26 | 2.0 | 3.0 | 0.00 | 0.00 | 0.00 | 69 | 1017.4 |
| 20260503053609 | 41 | 31 | 4.0 | 4.0 | 0.00 | 0.00 | 0.00 | 68 | 1017.4 |
| 20260503053108 | 41 | 43 | 4.0 | 7.0 | 0.00 | 0.00 | 0.00 | 68 | 1017.5 |
| 20260503052604 | 40 | 56 | 3.0 | 4.0 | 0.00 | 0.00 | 0.00 | 69 | 1017.4 |
| 20260503052100 | 40 | 23 | 1.0 | 3.0 | 0.00 | 0.00 | 0.00 | 69 | 1017.5 |
| 20260503051555 | 41 | 13 | 5.0 | 6.0 | 0.00 | 0.00 | 0.00 | 67 | 1017.3 |
| 20260503051054 | 41 | 53 | 3.0 | 6.0 | 0.00 | 0.00 | 0.00 | 67 | 1017.5 |
| 20260503050549 | 41 | 29 | 3.0 | 3.0 | 0.00 | 0.00 | 0.00 | 69 | 1017.5 |
| 20260503050047 | 41 | 51 | 3.0 | 7.0 | 0.00 | 0.00 | 0.00 | 69 | 1017.4 |
| 20260503045544 | 41 | 69 | 2.0 | 4.0 | 0.00 | 0.00 | 0.00 | 69 | 1017.4 |
| 20260503045041 | 41 | 19 | 2.0 | 4.0 | 0.00 | 0.00 | 0.00 | 69 | 1017.4 |
| 20260503044538 | 41 | 9 | 3.0 | 4.0 | 0.00 | 0.00 | 0.00 | 70 | 1017.4 |
| 20260503044035 | 41 | 21 | 3.0 | 4.0 | 0.00 | 0.00 | 0.00 | 71 | 1017.5 |
| 20260503043531 | 41 | 27 | 4.0 | 6.0 | 0.00 | 0.00 | 0.00 | 70 | 1017.4 |
| 20260503043028 | 41 | 16 | 3.0 | 8.0 | 0.00 | 0.00 | 0.00 | 70 | 1017.5 |
| 20260503042525 | 41 | 336 | 4.0 | 8.0 | 0.00 | 0.00 | 0.00 | 71 | 1017.5 |
| 20260503042021 | 41 | 41 | 2.0 | 3.0 | 0.00 | 0.00 | 0.00 | 72 | 1017.8 |
| 20260503041518 | 40 | 356 | 2.0 | 7.0 | 0.00 | 0.00 | 0.00 | 71 | 1017.6 |
| 20260503041016 | 40 | 41 | 3.0 | 4.0 | 0.00 | 0.00 | 0.00 | 72 | 1017.4 |
| 20260503040513 | 40 | 49 | 2.0 | 4.0 | 0.00 | 0.00 | 0.00 | 72 | 1017.6 |
| 20260503040010 | 40 | 54 | 4.0 | 6.0 | 0.00 | 0.00 | 0.00 | 72 | 1017.6 |
| 20260503035507 | 40 | 15 | 2.0 | 3.0 | 0.00 | 0.00 | 0.00 | 74 | 1017.7 |
| 20260503035005 | 39 | 30 | 2.0 | 3.0 | 0.00 | 0.00 | 0.00 | 74 | 1017.6 |
| 20260503034501 | 39 | 347 | 0.0 | 0.0 | 0.00 | 0.00 | 0.00 | 74 | 1017.6 |
| 20260503033958 | 39 | 347 | 1.0 | 1.0 | 0.00 | 0.00 | 0.00 | 73 | 1017.4 |
| 20260503033456 | 39 | 29 | 1.0 | 2.0 | 0.00 | 0.00 | 0.00 | 72 | 1017.5 |
| 20260503032954 | 40 | 55 | 0.0 | 0.0 | 0.00 | 0.00 | 0.00 | 70 | 1017.4 |
| 20260503032452 | 40 | 55 | 3.0 | 3.0 | 0.00 | 0.00 | 0.00 | 69 | 1017.6 |
| 20260503031949 | 41 | 62 | 2.0 | 3.0 | 0.00 | 0.00 | 0.00 | 69 | 1017.5 |
| 20260503031447 | 41 | 62 | 1.0 | 3.0 | 0.00 | 0.00 | 0.00 | 69 | 1017.8 |
| 20260503030943 | 41 | 12 | 3.0 | 4.0 | 0.00 | 0.00 | 0.00 | 68 | 1017.8 |
| 20260503030440 | 41 | 53 | 2.0 | 2.0 | 0.00 | 0.00 | 0.00 | 70 | 1017.8 |
| 20260503025937 | 41 | 49 | 1.0 | 4.0 | 0.00 | 0.00 | 0.00 | 69 | 1017.7 |
| 20260503025434 | 41 | 83 | 4.0 | 6.0 | 0.00 | 0.00 | 0.00 | 68 | 1017.9 |
| 20260503024932 | 42 | 60 | 4.0 | 6.0 | 0.00 | 0.00 | 0.00 | 66 | 1017.7 |
| 20260503024428 | 42 | 68 | 4.0 | 6.0 | 0.00 | 0.00 | 0.00 | 68 | 1017.8 |
| 20260503023925 | 42 | 59 | 1.0 | 2.0 | 0.00 | 0.00 | 0.00 | 67 | 1017.8 |
| 20260503023422 | 43 | 54 | 2.0 | 4.0 | 0.00 | 0.00 | 0.00 | 65 | 1017.7 |
| 20260503022919 | 43 | 99 | 0.0 | 0.0 | 0.00 | 0.00 | 0.00 | 63 | 1017.7 |
| 20260503022420 | 43 | 44 | 1.0 | 2.0 | 0.00 | 0.00 | 0.00 | 62 | 1017.8 |
| 20260503021915 | 43 | 63 | 1.0 | 2.0 | 0.00 | 0.00 | 0.00 | 62 | 1017.9 |
| 20260503021412 | 44 | 60 | 1.0 | 2.0 | 0.00 | 0.00 | 0.00 | 60 | 1017.8 |
| 20260503020909 | 44 | 53 | 1.0 | 2.0 | 0.00 | 0.00 | 0.00 | 61 | 1017.8 |
| 20260503020407 | 44 | 42 | 1.0 | 6.0 | 0.00 | 0.00 | 0.00 | 61 | 1017.7 |
| 20260503015903 | 44 | 65 | 3.0 | 6.0 | 0.00 | 0.00 | 0.00 | 59 | 1017.6 |
| 20260503015400 | 44 | 5 | 3.0 | 6.0 | 0.00 | 0.00 | 0.00 | 58 | 1017.6 |
| 20260503014856 | 45 | 49 | 3.0 | 6.0 | 0.00 | 0.00 | 0.00 | 58 | 1017.6 |
| 20260503014354 | 45 | 28 | 6.0 | 8.0 | 0.00 | 0.00 | 0.00 | 57 | 1017.4 |
| 20260503013851 | 45 | 30 | 4.0 | 8.0 | 0.00 | 0.00 | 0.00 | 58 | 1017.3 |
| 20260503013348 | 45 | 29 | 3.0 | 4.0 | 0.00 | 0.00 | 0.00 | 59 | 1017.3 |
| 20260503012845 | 45 | 42 | 3.0 | 9.0 | 0.00 | 0.00 | 0.00 | 58 | 1017.3 |
| 20260503012343 | 45 | 56 | 7.0 | 8.0 | 0.00 | 0.00 | 0.00 | 59 | 1017.2 |
| 20260503011840 | 45 | 37 | 7.0 | 9.0 | 0.00 | 0.00 | 0.00 | 57 | 1017.0 |
| 20260503011336 | 45 | 34 | 4.0 | 6.0 | 0.00 | 0.00 | 0.00 | 62 | 1017.0 |
| 20260503010833 | 44 | 82 | 4.0 | 6.0 | 0.00 | 0.00 | 0.00 | 61 | 1017.1 |
| 20260503010330 | 45 | 57 | 1.0 | 3.0 | 0.00 | 0.00 | 0.00 | 61 | 1017.0 |
| 20260503005827 | 45 | 38 | 3.0 | 3.0 | 0.00 | 0.00 | 0.00 | 60 | 1016.8 |
| 20260503005324 | 45 | 47 | 2.0 | 3.0 | 0.00 | 0.00 | 0.00 | 61 | 1016.7 |
| 20260503004820 | 45 | 35 | 2.0 | 6.0 | 0.00 | 0.00 | 0.00 | 59 | 1016.8 |
| 20260503004318 | 45 | 29 | 4.0 | 6.0 | 0.00 | 0.00 | 0.00 | 58 | 1016.3 |
| 20260503003815 | 46 | 52 | 3.0 | 4.0 | 0.00 | 0.00 | 0.00 | 59 | 1016.4 |
| 20260503003312 | 46 | 57 | 4.0 | 6.0 | 0.00 | 0.00 | 0.00 | 58 | 1016.3 |
| 20260503002809 | 46 | 46 | 4.0 | 7.0 | 0.00 | 0.00 | 0.00 | 58 | 1016.4 |
| 20260503002306 | 46 | 51 | 4.0 | 4.0 | 0.00 | 0.00 | 0.00 | 57 | 1016.4 |
| 20260503001802 | 47 | 64 | 5.0 | 10.0 | 0.00 | 0.00 | 0.00 | 55 | 1016.3 |
| 20260503001259 | 47 | 49 | 8.0 | 9.0 | 0.00 | 0.00 | 0.00 | 55 | 1016.2 |
| 20260503000756 | 47 | 71 | 9.0 | 11.0 | 0.00 | 0.00 | 0.00 | 54 | 1016.2 |
| 20260503000253 | 47 | 53 | 9.0 | 13.0 | 0.00 | 0.00 | 0.00 | 54 | 1016.1 |
| 20260502235751 | 47 | 17 | 4.0 | 11.0 | 0.00 | 0.00 | 0.00 | 55 | 1016.1 |
| 20260502235248 | 48 | 44 | 10.0 | 13.0 | 0.00 | 0.00 | 0.00 | 54 | 1015.9 |
| 20260502234744 | 48 | 54 | 6.0 | 8.0 | 0.00 | 0.00 | 0.00 | 54 | 1015.9 |
| 20260502234242 | 48 | 45 | 5.0 | 7.0 | 0.00 | 0.00 | 0.00 | 54 | 1015.8 |
| 20260502233738 | 49 | 72 | 7.0 | 10.0 | 0.00 | 0.00 | 0.00 | 53 | 1015.6 |
| 20260502233235 | 49 | 58 | 3.0 | 8.0 | 0.00 | 0.00 | 0.00 | 55 | 1015.5 |
| 20260502232730 | 49 | 63 | 6.0 | 9.0 | 0.00 | 0.00 | 0.00 | 51 | 1015.6 |
| 20260502232228 | 49 | 54 | 11.0 | 14.0 | 0.00 | 0.00 | 0.00 | 49 | 1015.6 |
| 20260502231724 | 49 | 51 | 8.0 | 11.0 | 0.00 | 0.00 | 0.00 | 50 | 1015.5 |
| 20260502231222 | 49 | 31 | 9.0 | 14.0 | 0.00 | 0.00 | 0.00 | 47 | 1015.5 |
| 20260502230721 | 49 | 62 | 7.0 | 8.0 | 0.00 | 0.00 | 0.00 | 49 | 1015.2 |
| 20260502230218 | 49 | 85 | 5.0 | 7.0 | 0.00 | 0.00 | 0.00 | 49 | 1015.4 |
| 20260502225714 | 50 | 40 | 7.0 | 9.0 | 0.00 | 0.00 | 0.00 | 48 | 1015.2 |
| 20260502225212 | 50 | 29 | 4.0 | 9.0 | 0.00 | 0.00 | 0.00 | 49 | 1015.3 |
| 20260502224707 | 50 | 42 | 6.0 | 8.0 | 0.00 | 0.00 | 0.00 | 48 | 1015.4 |
| 20260502224204 | 50 | 57 | 5.0 | 7.0 | 0.00 | 0.00 | 0.00 | 46 | 1015.2 |
| 20260502223702 | 50 | 57 | 5.0 | 7.0 | 0.00 | 0.00 | 0.00 | 46 | 1015.2 |
| 20260502223200 | 51 | 109 | 4.0 | 9.0 | 0.00 | 0.00 | 0.00 | 48 | 1015.2 |
| 20260502222658 | 51 | 48 | 4.0 | 8.0 | 0.00 | 0.00 | 0.00 | 47 | 1015.2 |
| 20260502222154 | 51 | 34 | 4.0 | 9.0 | 0.00 | 0.00 | 0.00 | 47 | 1015.0 |
| 20260502221649 | 51 | 57 | 6.0 | 9.0 | 0.00 | 0.00 | 0.00 | 48 | 1015.0 |
| 20260502221147 | 51 | 44 | 7.0 | 13.0 | 0.00 | 0.00 | 0.00 | 45 | 1015.1 |
| 20260502220643 | 51 | 53 | 6.0 | 13.0 | 0.00 | 0.00 | 0.00 | 47 | 1015.0 |
| 20260502220139 | 51 | 43 | 4.0 | 10.0 | 0.00 | 0.00 | 0.00 | 48 | 1015.1 |
| 20260502215637 | 51 | 52 | 3.0 | 6.0 | 0.00 | 0.00 | 0.00 | 49 | 1015.0 |
| 20260502215133 | 51 | 34 | 6.0 | 9.0 | 0.00 | 0.00 | 0.00 | 47 | 1015.2 |
| 20260502214631 | 51 | 47 | 8.0 | 13.0 | 0.00 | 0.00 | 0.00 | 43 | 1015.0 |
| 20260502214127 | 51 | 21 | 6.0 | 11.0 | 0.00 | 0.00 | 0.00 | 43 | 1014.9 |
| 20260502213625 | 52 | 58 | 4.0 | 9.0 | 0.00 | 0.00 | 0.00 | 46 | 1015.1 |
| 20260502213122 | 52 | 24 | 5.0 | 8.0 | 0.00 | 0.00 | 0.00 | 46 | 1014.8 |
| 20260502212621 | 52 | 355 | 5.0 | 9.0 | 0.00 | 0.00 | 0.00 | 43 | 1015.0 |